Time;durP1;ratioP1;P1;durP2;ratioP2;P2;SDS_P1;SDS_P2;PMS_P1;PMS_P2;Temp;Humidity;BMP_temperature;BMP_pressure;BME280_temperature;BME280_humidity;BME280_pressure;Samples;Min_cycle;Max_cycle;Signal;HPM_P1;HPM_P2
2023/09/03 00:00:52;;;;;;;9.88;5.18;;;14.00;99.90;;;;;;5029221;28;20033;-70
2023/09/03 00:03:17;;;;;;;7.28;5.18;;;14.00;99.90;;;;;;5029285;28;20195;-70
2023/09/03 00:05:51;;;;;;;6.05;5.20;;;14.00;99.90;;;;;;5028898;28;20064;-69
2023/09/03 00:08:16;;;;;;;7.90;5.20;;;14.00;99.90;;;;;;4994708;28;20052;-70
2023/09/03 00:10:43;;;;;;;6.25;5.07;;;13.90;99.90;;;;;;5011152;28;20049;-70
2023/09/03 00:13:08;;;;;;;9.02;5.03;;;13.90;99.90;;;;;;5011193;28;20068;-70
2023/09/03 00:15:39;;;;;;;5.78;4.68;;;13.90;99.90;;;;;;4994509;28;20374;-70
2023/09/03 00:18:05;;;;;;;4.97;4.30;;;13.90;99.90;;;;;;5028767;28;20493;-70
2023/09/03 00:20:31;;;;;;;6.13;4.32;;;13.80;99.90;;;;;;5028503;28;20073;-70
2023/09/03 00:22:56;;;;;;;5.35;4.00;;;13.80;99.90;;;;;;5013880;28;20785;-70
2023/09/03 00:25:22;;;;;;;5.45;4.60;;;13.80;99.90;;;;;;5014464;28;20124;-70
2023/09/03 00:27:48;;;;;;;6.10;4.70;;;13.70;99.90;;;;;;5032667;28;20058;-70
2023/09/03 00:30:13;;;;;;;7.88;4.68;;;13.70;99.90;;;;;;5032786;28;20048;-69
2023/09/03 00:32:39;;;;;;;7.32;5.00;;;13.70;99.90;;;;;;5032745;28;20045;-70
2023/09/03 00:35:05;;;;;;;5.53;4.18;;;13.70;99.90;;;;;;5014561;28;20045;-70
2023/09/03 00:37:31;;;;;;;5.47;4.50;;;13.60;99.90;;;;;;5032624;28;20117;-70
2023/09/03 00:39:57;;;;;;;5.68;4.55;;;13.50;99.90;;;;;;5032339;28;20811;-70
2023/09/03 00:42:22;;;;;;;6.40;4.65;;;13.50;99.90;;;;;;5032733;28;20048;-70
2023/09/03 00:44:48;;;;;;;7.97;5.35;;;13.50;99.90;;;;;;5014471;28;20059;-70
2023/09/03 00:47:16;;;;;;;6.43;5.00;;;13.50;99.90;;;;;;5014606;28;20066;-70
2023/09/03 00:49:43;;;;;;;7.35;5.43;;;13.50;99.90;;;;;;5032124;28;20120;-70
2023/09/03 00:52:10;;;;;;;6.20;5.22;;;13.50;99.90;;;;;;5032583;28;20512;-70
2023/09/03 00:54:36;;;;;;;7.38;4.75;;;13.50;99.90;;;;;;5013986;28;20087;-70
2023/09/03 00:57:02;;;;;;;7.18;5.03;;;13.50;99.90;;;;;;5032084;28;20468;-70
2023/09/03 00:59:30;;;;;;;8.15;5.50;;;13.50;99.90;;;;;;5014577;28;20170;-70
2023/09/03 01:01:56;;;;;;;6.60;5.13;;;13.50;99.90;;;;;;5014280;28;20061;-69
2023/09/03 01:04:22;;;;;;;8.23;5.68;;;13.40;99.90;;;;;;5032206;28;20041;-69
2023/09/03 01:06:49;;;;;;;8.68;5.88;;;13.50;99.90;;;;;;5013481;28;20063;-69
2023/09/03 01:09:17;;;;;;;7.30;5.68;;;13.50;99.90;;;;;;5013816;28;20495;-69
2023/09/03 01:12:15;;;;;;;8.35;6.10;;;13.50;99.90;;;;;;5014393;28;20084;-69
2023/09/03 01:14:43;;;;;;;7.28;5.50;;;13.50;99.90;;;;;;5013859;28;20552;-69
2023/09/03 01:17:38;;;;;;;6.93;5.45;;;13.40;99.90;;;;;;5013972;28;20052;-69
2023/09/03 01:20:18;;;;;;;6.50;5.07;;;13.40;99.90;;;;;;5013584;28;20057;-68
2023/09/03 01:23:11;;;;;;;7.35;5.20;;;13.30;99.90;;;;;;5013942;28;20386;-69
2023/09/03 01:25:52;;;;;;;6.57;4.95;;;13.30;99.90;;;;;;5031305;28;20048;-69
2023/09/03 01:28:34;;;;;;;6.65;5.22;;;13.20;99.90;;;;;;4997587;28;20056;-71
2023/09/03 01:31:01;;;;;;;;;;;13.20;99.90;;;;;;5032334;28;20448;-69
2023/09/03 01:33:29;;;;;;;7.68;5.72;;;13.20;99.90;;;;;;5013832;28;19968;-69
2023/09/03 01:35:57;;;;;;;9.02;5.68;;;13.20;99.90;;;;;;5014246;28;20034;-69
2023/09/03 01:38:23;;;;;;;7.50;5.85;;;13.20;99.90;;;;;;5031632;28;20045;-70
2023/09/03 01:40:50;;;;;;;8.43;6.00;;;13.20;99.90;;;;;;5031836;28;20045;-69
2023/09/03 01:43:16;;;;;;;8.63;5.75;;;13.10;99.90;;;;;;5031451;28;20084;-69
2023/09/03 01:46:01;;;;;;;10.60;6.03;;;13.10;99.90;;;;;;5013607;28;20076;-69
2023/09/03 01:48:32;;;;;;;8.02;6.05;;;13.10;99.90;;;;;;5031395;28;20046;-70
2023/09/03 01:51:07;;;;;;;8.75;6.32;;;13.10;99.90;;;;;;5013048;28;20156;-69
2023/09/03 01:53:49;;;;;;;8.40;6.63;;;13.10;99.90;;;;;;5031130;28;20082;-69
2023/09/03 01:56:18;;;;;;;10.85;6.28;;;13.10;99.90;;;;;;5031241;28;20087;-69
2023/09/03 01:58:48;;;;;;;10.15;6.10;;;13.10;99.90;;;;;;5031004;28;20048;-69
2023/09/03 02:01:15;;;;;;;8.77;7.18;;;13.20;99.90;;;;;;5031222;28;20045;-69
2023/09/03 02:03:45;;;;;;;8.07;6.38;;;13.10;99.90;;;;;;5031096;28;20408;-69
2023/09/03 02:06:11;;;;;;;10.02;6.82;;;13.10;99.90;;;;;;5013051;28;20604;-69
2023/09/03 02:08:37;;;;;;;9.80;6.85;;;13.10;99.90;;;;;;5030946;28;20041;-69
2023/09/03 02:11:02;;;;;;;9.27;7.10;;;13.10;99.90;;;;;;5030757;28;20084;-71
2023/09/03 02:13:28;;;;;;;10.50;7.60;;;13.10;99.90;;;;;;5012855;28;20136;-69
2023/09/03 02:15:54;;;;;;;13.00;7.72;;;13.20;99.90;;;;;;5030668;28;20072;-69
2023/09/03 02:18:19;;;;;;;8.95;7.13;;;13.20;99.90;;;;;;5030608;28;20151;-69
2023/09/03 02:20:45;;;;;;;9.93;7.22;;;13.20;99.90;;;;;;5030266;28;20533;-68
2023/09/03 02:23:11;;;;;;;9.10;7.20;;;13.20;99.90;;;;;;4996811;28;20056;-69
2023/09/03 02:25:36;;;;;;;11.20;7.07;;;13.20;99.90;;;;;;5012385;28;20045;-69
2023/09/03 02:28:02;;;;;;;10.55;6.60;;;13.20;99.90;;;;;;5031840;28;20091;-71
2023/09/03 02:30:28;;;;;;;10.20;7.32;;;13.20;99.90;;;;;;5030665;28;20054;-69
2023/09/03 02:32:54;;;;;;;9.77;7.20;;;13.20;99.90;;;;;;5012525;28;20519;-69
2023/09/03 02:35:19;;;;;;;10.02;7.53;;;13.10;99.90;;;;;;5012405;28;20435;-68
2023/09/03 02:37:45;;;;;;;11.05;7.05;;;13.10;99.90;;;;;;5012627;28;20136;-69
2023/09/03 02:40:11;;;;;;;9.02;6.60;;;13.10;99.90;;;;;;5012511;28;20116;-69
2023/09/03 02:42:37;;;;;;;7.93;6.55;;;13.10;99.90;;;;;;5030451;28;20549;-69
2023/09/03 02:45:03;;;;;;;8.98;7.13;;;13.10;99.90;;;;;;5029434;28;20053;-69
2023/09/03 02:47:29;;;;;;;9.73;7.40;;;13.10;99.90;;;;;;5012199;28;20060;-69
2023/09/03 02:49:55;;;;;;;10.35;7.78;;;13.00;99.90;;;;;;5030020;28;20402;-69
2023/09/03 02:52:20;;;;;;;12.13;7.53;;;12.90;99.90;;;;;;5012094;28;20053;-69
2023/09/03 02:54:46;;;;;;;12.77;7.63;;;13.00;99.90;;;;;;5012071;28;20049;-69
2023/09/03 02:57:12;;;;;;;9.48;7.00;;;12.90;99.90;;;;;;5011824;28;20052;-69
2023/09/03 02:59:37;;;;;;;8.85;7.28;;;13.00;99.90;;;;;;5012070;28;20048;-69
2023/09/03 03:02:03;;;;;;;6.88;5.95;;;12.90;99.90;;;;;;5029692;28;20148;-69
2023/09/03 03:04:29;;;;;;;6.22;5.25;;;12.90;99.90;;;;;;5029470;28;20042;-69
2023/09/03 03:06:55;;;;;;;5.93;5.00;;;12.90;99.90;;;;;;5012165;28;20053;-69
2023/09/03 03:09:20;;;;;;;7.30;6.05;;;12.80;99.90;;;;;;5011687;28;20052;-69
2023/09/03 03:11:46;;;;;;;8.70;5.68;;;12.80;99.90;;;;;;5011664;28;20180;-69
2023/09/03 03:14:13;;;;;;;6.65;5.78;;;12.80;99.90;;;;;;5029692;28;20513;-69
2023/09/03 03:16:39;;;;;;;11.82;6.20;;;12.80;99.90;;;;;;5011532;28;20116;-69
2023/09/03 03:19:05;;;;;;;6.28;5.15;;;12.70;99.90;;;;;;5011482;28;20192;-69
2023/09/03 03:21:30;;;;;;;6.15;5.45;;;12.80;99.90;;;;;;5029178;28;20064;-69
2023/09/03 03:23:56;;;;;;;6.63;5.30;;;12.70;99.90;;;;;;5029628;28;20053;-69
2023/09/03 03:26:22;;;;;;;7.43;5.30;;;12.70;99.90;;;;;;5028898;28;20068;-69
2023/09/03 03:28:47;;;;;;;7.18;5.75;;;12.60;99.90;;;;;;5011584;28;20123;-69
2023/09/03 03:31:19;;;;;;;6.45;5.35;;;12.60;99.90;;;;;;5029139;28;20432;-69
2023/09/03 03:33:46;;;;;;;6.78;5.65;;;12.50;99.90;;;;;;5011244;28;20128;-69
2023/09/03 03:36:17;;;;;;;9.55;5.43;;;12.50;99.90;;;;;;5011301;28;20461;-69
2023/09/03 03:38:43;;;;;;;9.13;6.03;;;12.50;99.90;;;;;;5029385;28;20461;-69
2023/09/03 03:41:11;;;;;;;7.72;5.90;;;12.50;99.90;;;;;;5011375;28;20129;-69
2023/09/03 03:43:44;;;;;;;7.10;6.10;;;12.50;99.90;;;;;;5029362;28;20037;-69
2023/09/03 03:46:13;;;;;;;7.53;6.15;;;12.60;99.90;;;;;;5028993;28;20052;-70
2023/09/03 03:48:40;;;;;;;7.63;6.55;;;12.50;99.90;;;;;;5029219;28;20037;-68
2023/09/03 03:51:06;;;;;;;7.78;6.20;;;12.50;99.90;;;;;;5029228;28;20095;-69
2023/09/03 03:53:31;;;;;;;7.55;6.30;;;12.50;99.90;;;;;;5011063;28;20052;-70
2023/09/03 03:55:58;;;;;;;6.40;5.60;;;12.50;99.90;;;;;;5028360;28;20045;-69
2023/09/03 03:58:25;;;;;;;7.10;5.97;;;12.50;99.90;;;;;;5011172;28;20049;-70
2023/09/03 04:00:51;;;;;;;7.55;5.65;;;12.40;99.90;;;;;;5029158;28;20042;-70
2023/09/03 04:03:17;;;;;;;6.72;6.00;;;12.40;99.90;;;;;;5028765;28;20037;-70
2023/09/03 04:05:42;;;;;;;11.68;6.43;;;12.40;99.90;;;;;;5029193;28;20037;-70
2023/09/03 04:08:08;;;;;;;9.75;5.97;;;12.40;99.90;;;;;;5028798;28;20048;-70
2023/09/03 04:10:34;;;;;;;9.38;6.38;;;12.30;99.90;;;;;;5029183;28;20037;-69
2023/09/03 04:12:59;;;;;;;9.32;6.28;;;12.30;99.90;;;;;;5011088;28;20041;-70
2023/09/03 04:15:25;;;;;;;8.45;6.25;;;12.30;99.90;;;;;;5011079;28;20507;-69
2023/09/03 04:17:50;;;;;;;11.00;7.32;;;12.30;99.90;;;;;;5029215;28;20140;-70
2023/09/03 04:20:16;;;;;;;9.75;6.78;;;12.30;99.90;;;;;;5029110;28;20061;-69
2023/09/03 04:22:42;;;;;;;10.30;7.43;;;12.30;99.90;;;;;;5011223;28;20497;-70
2023/09/03 04:25:08;;;;;;;9.40;6.75;;;12.30;99.90;;;;;;4994482;28;20064;-69
2023/09/03 04:27:34;;;;;;;9.55;6.43;;;12.30;99.90;;;;;;5028958;28;20401;-70
2023/09/03 04:29:59;;;;;;;8.05;5.68;;;12.30;99.90;;;;;;5028821;28;20045;-70
2023/09/03 04:32:25;;;;;;;7.60;5.40;;;12.30;99.90;;;;;;5028441;28;20038;-70
2023/09/03 04:34:51;;;;;;;8.23;5.68;;;12.30;99.90;;;;;;4994556;28;20910;-70
2023/09/03 04:37:17;;;;;;;7.05;5.38;;;12.30;99.90;;;;;;5028563;28;20075;-70
2023/09/03 04:39:43;;;;;;;5.97;4.72;;;12.30;99.90;;;;;;5028580;28;20042;-70
2023/09/03 04:42:08;;;;;;;6.90;4.50;;;12.20;99.90;;;;;;5028794;28;20539;-70
2023/09/03 04:44:37;;;;;;;6.93;4.60;;;12.20;99.90;;;;;;5028577;28;20065;-69
2023/09/03 04:47:05;;;;;;;6.45;5.60;;;12.20;99.90;;;;;;4994674;28;20135;-69
2023/09/03 04:49:32;;;;;;;10.25;5.93;;;12.20;99.90;;;;;;5028658;28;20042;-69
2023/09/03 04:51:58;;;;;;;9.40;7.25;;;12.20;99.90;;;;;;5028586;28;20064;-70
2023/09/03 04:54:24;;;;;;;7.03;5.45;;;12.10;99.90;;;;;;5011015;28;20098;-70
2023/09/03 04:56:52;;;;;;;7.13;5.10;;;12.10;99.90;;;;;;5028466;28;20472;-69
2023/09/03 04:59:18;;;;;;;5.47;4.75;;;12.20;99.90;;;;;;5028353;28;20041;-69
2023/09/03 05:01:44;;;;;;;4.82;4.32;;;12.20;99.90;;;;;;5028289;28;20048;-69
2023/09/03 05:04:09;;;;;;;7.47;5.00;;;12.10;99.90;;;;;;5010521;28;20057;-69
2023/09/03 05:06:35;;;;;;;4.85;4.38;;;12.10;99.90;;;;;;5010510;28;20068;-69
2023/09/03 05:09:01;;;;;;;4.80;3.80;;;12.10;99.90;;;;;;5013052;28;20044;-70
2023/09/03 05:11:26;;;;;;;4.53;4.03;;;12.10;99.90;;;;;;5032224;28;20115;-69
2023/09/03 05:13:52;;;;;;;6.28;4.38;;;12.10;99.90;;;;;;5014137;28;20344;-69
2023/09/03 05:16:18;;;;;;;10.45;5.93;;;12.10;99.90;;;;;;5031919;28;20452;-69
2023/09/03 05:18:44;;;;;;;11.35;7.10;;;12.10;99.90;;;;;;5014294;28;20053;-70
2023/09/03 05:21:10;;;;;;;8.52;6.70;;;12.10;99.90;;;;;;5031569;28;20041;-69
2023/09/03 05:23:36;;;;;;;10.38;6.28;;;12.10;99.90;;;;;;5031707;28;20042;-69
2023/09/03 05:26:03;;;;;;;8.45;5.70;;;12.20;99.90;;;;;;5031679;28;20436;-69
2023/09/03 05:28:29;;;;;;;9.35;7.03;;;12.10;99.90;;;;;;5031796;28;20045;-69
2023/09/03 05:30:55;;;;;;;9.25;6.65;;;12.20;99.90;;;;;;5013991;28;20397;-69
2023/09/03 05:33:20;;;;;;;10.88;7.57;;;12.20;99.90;;;;;;5013726;28;20053;-69
2023/09/03 05:35:46;;;;;;;8.82;6.75;;;12.20;99.90;;;;;;4997311;28;20053;-69
2023/09/03 05:38:12;;;;;;;11.95;6.68;;;12.30;99.90;;;;;;5031638;28;20397;-69
2023/09/03 05:40:37;;;;;;;9.50;6.35;;;12.30;99.90;;;;;;5013533;28;20037;-69
2023/09/03 05:43:03;;;;;;;11.57;6.47;;;12.30;99.90;;;;;;5013861;28;20084;-69
2023/09/03 05:45:29;;;;;;;8.85;6.88;;;12.30;99.90;;;;;;4996952;28;20038;-69
2023/09/03 05:47:55;;;;;;;9.15;7.13;;;12.30;99.90;;;;;;5031302;28;20148;-69
2023/09/03 05:50:20;;;;;;;10.70;7.28;;;12.40;99.90;;;;;;5013588;28;20412;-69
2023/09/03 05:52:46;;;;;;;10.18;7.03;;;12.50;99.90;;;;;;5031378;28;20034;-69
2023/09/03 05:55:12;;;;;;;;;;;12.60;99.90;;;;;;5032154;28;20055;-69
2023/09/03 05:57:37;;;;;;;10.95;8.25;;;12.80;99.90;;;;;;5031574;28;19960;-70
2023/09/03 06:00:05;;;;;;;10.38;7.05;;;12.80;99.90;;;;;;5031437;28;20428;-69
2023/09/03 06:02:33;;;;;;;9.80;6.93;;;12.90;99.90;;;;;;4997308;28;20033;-70
2023/09/03 06:04:59;;;;;;;9.82;7.10;;;13.00;99.90;;;;;;5031321;28;20041;-70
2023/09/03 06:07:25;;;;;;;11.10;7.43;;;13.10;99.90;;;;;;5030854;28;20038;-70
2023/09/03 06:09:51;;;;;;;9.07;7.40;;;13.20;99.90;;;;;;5013035;28;20047;-70
2023/09/03 06:12:16;;;;;;;10.90;7.63;;;13.30;99.90;;;;;;5013324;28;20052;-70
2023/09/03 06:14:42;;;;;;;10.50;8.13;;;13.30;99.90;;;;;;5012893;28;20068;-70
2023/09/03 06:17:08;;;;;;;8.77;6.68;;;13.40;99.90;;;;;;5031108;28;20053;-70
2023/09/03 06:19:33;;;;;;;8.63;6.38;;;13.40;99.90;;;;;;5029899;28;20045;-70
2023/09/03 06:21:59;;;;;;;9.20;7.25;;;13.50;99.90;;;;;;5013182;28;20073;-70
2023/09/03 06:24:25;;;;;;;10.75;6.55;;;13.50;99.90;;;;;;5030528;28;20404;-70
2023/09/03 06:26:50;;;;;;;9.15;7.18;;;13.60;99.90;;;;;;5012478;28;20045;-70
2023/09/03 06:29:16;;;;;;;9.57;7.60;;;13.70;99.90;;;;;;5030457;28;20049;-70
2023/09/03 06:31:42;;;;;;;8.23;6.50;;;13.70;99.90;;;;;;5012486;28;20053;-70
2023/09/03 06:34:07;;;;;;;8.18;7.32;;;13.90;99.90;;;;;;5030460;28;20433;-70
2023/09/03 06:36:33;;;;;;;9.05;7.13;;;14.00;99.90;;;;;;5030113;28;20111;-70
2023/09/03 06:38:59;;;;;;;8.40;6.72;;;14.10;99.90;;;;;;5030258;28;20050;-70
2023/09/03 06:41:24;;;;;;;10.60;7.22;;;14.10;99.90;;;;;;5012352;28;20412;-69
2023/09/03 06:43:50;;;;;;;8.63;7.35;;;14.20;99.90;;;;;;5030043;28;20116;-70
2023/09/03 06:46:16;;;;;;;10.00;7.60;;;14.20;99.90;;;;;;5030079;28;20133;-69
2023/09/03 06:48:42;;;;;;;9.45;6.78;;;14.20;99.90;;;;;;5012207;28;20053;-70
2023/09/03 06:51:09;;;;;;;9.43;6.70;;;14.30;99.90;;;;;;5012152;28;20399;-70
2023/09/03 06:53:35;;;;;;;7.85;6.45;;;14.40;99.90;;;;;;5012228;28;20045;-69
2023/09/03 06:56:01;;;;;;;9.57;7.20;;;14.40;99.90;;;;;;5029897;28;20057;-70
2023/09/03 06:58:26;;;;;;;8.88;6.32;;;14.50;99.90;;;;;;5030002;28;20041;-70
2023/09/03 07:00:52;;;;;;;8.98;6.95;;;14.50;99.90;;;;;;5012060;28;20122;-69
2023/09/03 07:03:18;;;;;;;8.70;6.70;;;14.70;99.90;;;;;;5029728;28;20056;-70
2023/09/03 07:05:43;;;;;;;11.55;7.63;;;14.70;99.90;;;;;;5029891;28;20124;-70
2023/09/03 07:08:09;;;;;;;8.73;6.65;;;14.70;99.90;;;;;;5029860;28;20045;-69
2023/09/03 07:10:36;;;;;;;7.78;6.18;;;14.80;99.90;;;;;;5029841;28;20033;-70
2023/09/03 07:13:02;;;;;;;8.02;6.03;;;14.90;99.90;;;;;;5011813;28;20041;-70
2023/09/03 07:15:28;;;;;;;8.13;6.47;;;15.00;99.90;;;;;;5029775;28;20723;-70
2023/09/03 07:17:53;;;;;;;8.43;7.05;;;15.10;99.90;;;;;;5029578;28;20033;-70
2023/09/03 07:20:19;;;;;;;10.73;6.55;;;15.10;99.90;;;;;;5029174;28;20114;-70
2023/09/03 07:22:45;;;;;;;7.88;5.93;;;15.20;99.90;;;;;;5029629;28;20034;-70
2023/09/03 07:25:11;;;;;;;6.68;5.43;;;15.30;99.90;;;;;;5029035;28;20365;-70
2023/09/03 07:27:38;;;;;;;8.07;5.95;;;15.40;99.90;;;;;;5011857;28;20115;-70
2023/09/03 07:30:08;;;;;;;11.45;6.30;;;15.40;99.90;;;;;;5030067;28;20148;-70
2023/09/03 07:32:36;;;;;;;8.50;5.88;;;15.50;99.90;;;;;;5030137;28;20045;-69
2023/09/03 07:35:06;;;;;;;7.18;5.80;;;15.60;99.90;;;;;;5031701;28;20050;-69
2023/09/03 07:37:32;;;;;;;7.50;5.30;;;15.80;99.90;;;;;;5012360;28;20118;-69
2023/09/03 07:39:58;;;;;;;5.75;5.15;;;15.80;99.90;;;;;;5011958;28;20532;-69
2023/09/03 07:42:24;;;;;;;7.90;5.13;;;15.80;99.90;;;;;;4995295;28;20042;-70
2023/09/03 07:44:49;;;;;;;8.52;5.60;;;15.80;99.90;;;;;;5029406;28;20045;-69
2023/09/03 07:47:15;;;;;;;6.88;5.55;;;15.80;99.90;;;;;;5011285;28;20400;-70
2023/09/03 07:49:42;;;;;;;6.82;5.43;;;15.80;99.90;;;;;;5011156;28;20132;-70
2023/09/03 07:52:08;;;;;;;8.13;5.72;;;15.80;99.90;;;;;;5011248;28;20058;-70
2023/09/03 07:54:34;;;;;;;6.43;5.78;;;15.90;99.90;;;;;;5011134;28;20384;-70
2023/09/03 07:57:00;;;;;;;8.60;6.63;;;15.90;99.90;;;;;;5029022;28;20176;-69
2023/09/03 07:59:26;;;;;;;9.35;6.43;;;15.90;99.90;;;;;;5028980;28;20649;-69
2023/09/03 08:01:52;;;;;;;10.40;6.53;;;15.90;99.90;;;;;;5028860;28;20063;-69
2023/09/03 08:04:18;;;;;;;7.88;6.70;;;16.10;99.90;;;;;;5029081;28;20095;-70
2023/09/03 08:06:44;;;;;;;12.85;7.45;;;16.20;99.90;;;;;;5028999;28;20045;-70
2023/09/03 08:09:09;;;;;;;9.05;7.22;;;16.30;99.90;;;;;;5028485;28;20037;-70
2023/09/03 08:11:36;;;;;;;9.98;7.32;;;16.30;99.90;;;;;;5010804;28;20409;-70
2023/09/03 08:14:02;;;;;;;6.75;5.88;;;16.30;99.90;;;;;;5010980;28;20037;-70
2023/09/03 08:16:28;;;;;;;9.30;6.75;;;16.30;99.90;;;;;;5028431;28;20548;-70
2023/09/03 08:18:53;;;;;;;7.63;6.28;;;16.30;99.90;;;;;;5028791;28;20049;-70
2023/09/03 08:21:19;;;;;;;9.25;5.63;;;16.30;99.90;;;;;;5028363;28;20058;-70
2023/09/03 08:23:45;;;;;;;9.57;6.07;;;16.40;99.90;;;;;;5028616;28;20037;-70
2023/09/03 08:26:10;;;;;;;11.20;5.80;;;16.40;99.90;;;;;;5010272;28;20111;-69
2023/09/03 08:28:36;;;;;;;8.85;6.00;;;16.50;99.90;;;;;;5010672;28;20730;-70
2023/09/03 08:31:03;;;;;;;7.43;5.50;;;16.50;99.90;;;;;;4994294;28;20200;-70
2023/09/03 08:33:28;;;;;;;9.40;6.13;;;16.60;99.90;;;;;;5010535;28;20053;-70
2023/09/03 08:35:54;;;;;;;9.85;6.10;;;16.60;99.90;;;;;;5010878;28;20045;-69
2023/09/03 08:38:20;;;;;;;9.43;5.78;;;16.70;99.90;;;;;;5028290;28;20045;-70
2023/09/03 08:40:46;;;;;;;9.20;6.45;;;16.70;99.90;;;;;;5010759;28;20061;-69
2023/09/03 08:43:17;;;;;;;10.57;6.22;;;16.80;99.90;;;;;;5012254;28;20115;-70
2023/09/03 08:46:00;;;;;;;8.40;5.55;;;16.90;99.90;;;;;;4997961;28;20064;-70
2023/09/03 08:48:26;;;;;;;;;;;17.00;99.90;;;;;;5015199;28;20045;-70
2023/09/03 08:50:52;;;;;;;6.95;5.25;;;17.10;99.90;;;;;;5032345;28;20306;-70
2023/09/03 08:53:19;;;;;;;7.30;4.50;;;17.20;99.90;;;;;;5032195;28;20497;-70
2023/09/03 08:55:45;;;;;;;9.15;4.95;;;17.30;99.90;;;;;;4997987;28;20041;-70
2023/09/03 08:58:11;;;;;;;6.65;4.55;;;17.40;99.90;;;;;;5032104;28;20427;-70
2023/09/03 09:00:37;;;;;;;8.55;4.95;;;17.50;99.90;;;;;;5032131;28;20080;-70
2023/09/03 09:03:06;;;;;;;6.53;4.35;;;17.50;99.90;;;;;;5014235;28;20049;-70
2023/09/03 09:05:33;;;;;;;6.47;4.47;;;17.50;99.90;;;;;;5014210;28;20041;-70
2023/09/03 09:08:01;;;;;;;6.82;3.80;;;17.50;99.90;;;;;;5013871;28;20044;-70
2023/09/03 09:10:32;;;;;;;5.80;3.88;;;17.50;99.90;;;;;;5032170;28;20168;-70
2023/09/03 09:13:04;;;;;;;4.10;3.58;;;17.50;99.90;;;;;;4997883;28;20661;-70
2023/09/03 09:15:29;;;;;;;4.72;3.58;;;17.50;99.90;;;;;;5032186;28;20037;-70
2023/09/03 09:17:55;;;;;;;4.95;3.15;;;17.50;99.90;;;;;;5032119;28;20033;-70
2023/09/03 09:20:21;;;;;;;4.07;3.28;;;17.60;99.90;;;;;;5031959;28;20107;-70
2023/09/03 09:22:49;;;;;;;5.43;3.28;;;17.70;99.90;;;;;;5032117;28;20088;-70
2023/09/03 09:25:19;;;;;;;5.25;3.80;;;17.70;99.90;;;;;;5013955;28;20128;-70
2023/09/03 09:27:45;;;;;;;6.05;4.93;;;17.80;99.90;;;;;;5014195;28;20048;-70
2023/09/03 09:30:13;;;;;;;4.53;3.60;;;17.90;99.90;;;;;;5032039;28;20037;-70
2023/09/03 09:32:40;;;;;;;9.38;4.55;;;17.90;99.90;;;;;;5031766;28;20511;-70
2023/09/03 09:35:08;;;;;;;7.05;3.95;;;18.00;99.90;;;;;;5032246;28;20041;-70
2023/09/03 09:37:41;;;;;;;6.90;3.60;;;18.00;99.90;;;;;;5013481;28;20038;-70
2023/09/03 09:40:12;;;;;;;6.57;4.20;;;18.20;99.90;;;;;;5031617;28;20049;-70
2023/09/03 09:42:55;;;;;;;4.47;2.78;;;18.30;99.90;;;;;;5031479;28;20049;-70
2023/09/03 09:45:21;;;;;;;5.72;2.03;;;18.30;99.90;;;;;;5013730;28;20045;-70
2023/09/03 09:48:08;;;;;;;7.60;2.70;;;18.30;99.90;;;;;;5013817;28;20049;-70
2023/09/03 09:50:39;;;;;;;2.78;2.20;;;18.30;99.90;;;;;;5031625;28;20051;-70
2023/09/03 09:53:18;;;;;;;3.85;2.78;;;18.40;99.90;;;;;;5031659;28;20045;-70
2023/09/03 09:55:45;;;;;;;3.80;2.42;;;18.30;99.90;;;;;;5013608;28;20043;-70
2023/09/03 09:58:12;;;;;;;3.05;2.00;;;18.40;99.90;;;;;;5031536;28;20055;-70
2023/09/03 10:00:41;;;;;;;2.60;1.77;;;18.40;99.90;;;;;;5031315;28;20059;-70
2023/09/03 10:03:16;;;;;;;6.82;1.90;;;18.40;99.90;;;;;;5031122;28;20056;-70
2023/09/03 10:05:49;;;;;;;2.75;1.85;;;18.40;99.90;;;;;;5031001;28;20049;-70
2023/09/03 10:08:16;;;;;;;3.25;2.30;;;18.40;99.90;;;;;;5013335;28;20048;-70
2023/09/03 10:10:42;;;;;;;4.05;2.72;;;18.40;99.90;;;;;;5031038;28;20097;-69
2023/09/03 10:13:09;;;;;;;4.43;2.33;;;18.40;99.90;;;;;;5013066;28;20404;-70
2023/09/03 10:15:35;;;;;;;3.38;2.50;;;18.50;99.90;;;;;;5030743;28;20052;-70
2023/09/03 10:18:02;;;;;;;3.88;2.35;;;18.50;99.90;;;;;;5013147;28;20042;-70
2023/09/03 10:20:29;;;;;;;5.50;2.75;;;18.60;99.90;;;;;;5030405;28;20061;-69
2023/09/03 10:23:01;;;;;;;4.97;2.53;;;18.60;99.90;;;;;;5030831;28;20076;-70
2023/09/03 10:25:29;;;;;;;4.93;2.60;;;18.80;99.90;;;;;;5030469;28;20091;-69
2023/09/03 10:28:07;;;;;;;3.45;2.35;;;18.80;99.90;;;;;;5030542;28;20037;-70
2023/09/03 10:30:37;;;;;;;4.03;2.65;;;18.90;99.90;;;;;;5013098;28;20657;-70
2023/09/03 10:33:03;;;;;;;5.93;3.50;;;18.90;99.90;;;;;;5012750;28;20064;-70
2023/09/03 10:35:29;;;;;;;3.63;3.00;;;19.00;99.90;;;;;;5012722;28;20049;-69
2023/09/03 10:37:55;;;;;;;5.05;2.33;;;19.00;99.90;;;;;;5030472;28;20508;-70
2023/09/03 10:40:22;;;;;;;3.28;2.45;;;19.00;99.90;;;;;;5030413;28;20051;-69
2023/09/03 10:43:18;;;;;;;7.57;2.60;;;19.00;99.90;;;;;;5012761;28;20045;-70
2023/09/03 10:46:03;;;;;;;5.55;2.83;;;19.10;99.90;;;;;;5027005;28;20060;-70
2023/09/03 10:48:29;;;;;;;4.57;2.95;;;19.20;99.90;;;;;;5012274;28;20052;-70
2023/09/03 10:50:55;;;;;;;7.35;3.15;;;19.30;99.90;;;;;;4996324;28;20048;-70
2023/09/03 10:53:40;;;;;;;5.30;2.75;;;19.30;99.90;;;;;;5012769;28;20044;-70
2023/09/03 10:56:06;;;;;;;3.83;2.40;;;19.30;99.90;;;;;;5030168;28;20524;-70
2023/09/03 10:58:32;;;;;;;7.50;2.75;;;19.30;99.90;;;;;;5030674;28;20041;-70
2023/09/03 11:01:16;;;;;;;6.80;2.97;;;19.30;99.90;;;;;;5012642;28;20084;-70
2023/09/03 11:03:53;;;;;;;3.92;2.95;;;19.30;99.90;;;;;;5012133;28;20493;-70
2023/09/03 11:06:27;;;;;;;3.40;2.50;;;19.40;99.90;;;;;;5029906;28;20051;-70
2023/09/03 11:08:58;;;;;;;4.93;2.90;;;19.40;99.90;;;;;;5030175;28;20483;-70
2023/09/03 11:11:33;;;;;;;4.05;2.55;;;19.40;99.90;;;;;;5012254;28;20041;-70
2023/09/03 11:13:59;;;;;;;4.53;2.35;;;19.50;99.90;;;;;;5029996;28;20059;-70
2023/09/03 11:16:29;;;;;;;4.18;2.20;;;19.50;99.90;;;;;;5011806;28;20511;-70
2023/09/03 11:18:55;;;;;;;4.75;1.95;;;19.60;99.90;;;;;;5029619;28;20237;-70
2023/09/03 11:21:25;;;;;;;3.55;1.80;;;19.80;99.90;;;;;;5029367;28;20068;-69
2023/09/03 11:24:18;;;;;;;3.10;1.77;;;19.60;99.90;;;;;;5012083;28;20124;-69
2023/09/03 11:26:45;;;;;;;2.40;1.60;;;19.60;99.90;;;;;;5011749;28;20049;-70
2023/09/03 11:29:22;;;;;;;3.38;1.40;;;19.70;99.90;;;;;;4995560;28;20041;-69
2023/09/03 11:31:49;;;;;;;6.13;1.77;;;19.70;99.90;;;;;;5011689;28;20150;-70
2023/09/03 11:34:17;;;;;;;3.28;1.70;;;19.80;99.90;;;;;;5011812;28;20041;-70
2023/09/03 11:36:44;;;;;;;3.58;1.75;;;19.80;99.90;;;;;;5029475;28;20138;-70
2023/09/03 11:39:17;;;;;;;1.90;1.33;;;19.70;99.90;;;;;;5011506;28;20492;-70
2023/09/03 11:41:43;;;;;;;3.95;1.13;;;19.80;99.90;;;;;;5029355;28;20045;-70
2023/09/03 11:44:22;;;;;;;2.58;2.25;;;19.90;99.90;;;;;;5029523;28;20029;-70
2023/09/03 11:46:57;;;;;;;2.88;1.63;;;19.90;99.90;;;;;;5011259;28;20042;-69
2023/09/03 11:49:23;;;;;;;3.22;1.73;;;19.90;99.90;;;;;;5011434;28;20057;-70
2023/09/03 11:51:48;;;;;;;3.15;1.60;;;20.00;99.90;;;;;;4995150;28;20049;-70
2023/09/03 11:54:24;;;;;;;2.13;1.55;;;20.00;99.90;;;;;;5011561;28;20076;-70
2023/09/03 11:56:54;;;;;;;4.07;1.83;;;20.00;99.90;;;;;;5011136;28;20041;-70
2023/09/03 11:59:20;;;;;;;4.78;2.08;;;20.00;99.90;;;;;;5011336;28;20470;-70
2023/09/03 12:01:46;;;;;;;1.83;1.58;;;20.00;99.90;;;;;;4995002;28;20366;-70
2023/09/03 12:04:12;;;;;;;3.15;1.70;;;20.00;99.90;;;;;;5029319;28;20048;-69
2023/09/03 12:06:38;;;;;;;3.80;1.67;;;20.10;99.90;;;;;;5011269;28;20056;-70
2023/09/03 12:09:04;;;;;;;5.30;2.10;;;20.10;99.90;;;;;;5029279;28;20376;-70
2023/09/03 12:11:30;;;;;;;4.18;2.03;;;20.20;99.90;;;;;;5029237;28;20044;-70
2023/09/03 12:13:56;;;;;;;2.17;1.65;;;20.10;99.90;;;;;;5011229;28;20033;-70
2023/09/03 12:16:23;;;;;;;3.10;1.83;;;20.20;99.90;;;;;;4994609;28;20060;-70
2023/09/03 12:19:01;;;;;;;3.58;1.50;;;20.20;99.90;;;;;;4994050;28;20046;-70
2023/09/03 12:21:32;;;;;;;3.00;1.40;;;20.20;99.90;;;;;;5011057;28;20476;-70
2023/09/03 12:23:58;;;;;;;2.55;1.30;;;20.30;99.90;;;;;;4995192;28;20053;-70
2023/09/03 12:26:24;;;;;;;3.63;1.42;;;20.30;99.90;;;;;;5011079;28;20045;-70
2023/09/03 12:28:49;;;;;;;2.00;1.58;;;20.30;99.90;;;;;;5011364;28;20045;-70
2023/09/03 12:31:17;;;;;;;3.95;1.45;;;20.30;99.90;;;;;;5029004;28;20049;-70
2023/09/03 12:33:48;;;;;;;4.03;1.40;;;20.40;99.90;;;;;;5011514;28;20687;-70
2023/09/03 12:36:21;;;;;;;3.63;1.47;;;20.40;99.90;;;;;;5013457;28;20045;-70
2023/09/03 12:38:51;;;;;;;2.03;1.52;;;20.50;99.90;;;;;;5011402;28;20504;-70
2023/09/03 12:41:17;;;;;;;1.58;1.30;;;20.40;99.90;;;;;;5011303;28;20576;-70
2023/09/03 12:43:43;;;;;;;2.28;1.55;;;20.40;99.90;;;;;;5011238;28;20400;-70
2023/09/03 12:46:12;;;;;;;2.28;1.13;;;20.50;99.90;;;;;;4994501;28;20042;-70
2023/09/03 12:48:38;;;;;;;3.55;1.17;;;20.50;99.90;;;;;;5010783;28;20409;-70